Date,TemperatureHighF,TemperatureAvgF,TemperatureLowF,DewpointHighF,DewpointAvgF,DewpointLowF,HumidityHigh,HumidityAvg,HumidityLow,PressureMaxIn,PressureMinIn,WindSpeedMaxMPH,WindSpeedAvgMPH,GustSpeedMaxMPH,PrecipitationSumIn
2012-1-1,57.4,44.2,34.9,43.9,26.9,15.7,82,52,31,30.37,29.69,27,6,27,0.00
2012-1-2,34.7,30.1,24.3,19.1,13.4,8.9,62,50,36,30.54,30.35,25,5,25,0.00
2012-1-3,40.8,29.9,18.1,15.8,10.2,4.1,76,47,23,30.56,30.14,18,4,18,0.00
2012-1-4,51.5,42.5,34.4,34.3,26.8,15.7,68,54,45,30.21,30.07,15,3,15,0.00
2012-1-5,67.3,51.4,36.4,34.3,31.4,27.2,73,49,28,30.16,29.87,13,2,13,0.00
2012-1-6,71.0,56.9,46.9,36.3,33.3,30.8,65,43,24,29.91,29.72,14,2,15,0.00
2012-1-7,52.5,44.6,37.1,35.1,30.1,26.1,76,57,40,30.24,29.91,9,1,9,0.00
2012-1-8,45.4,39.3,28.4,34.8,31.6,25.4,90,74,62,30.33,30.23,5,0,5,0.00
2012-1-9,53.4,38.2,27.9,34.2,29.4,25.9,95,73,40,30.28,30.11,8,0,8,0.00
2012-1-10,58.2,41.2,28.1,33.6,29.1,24.7,89,65,31,30.14,29.75,12,0,12,0.00
2012-1-11,57.5,45.5,37.5,40.5,35.7,31.1,93,70,40,29.75,29.53,19,1,19,0.01
2012-1-12,38.0,22.1,16.7,32.6,16.8,10.0,91,80,70,29.96,29.68,21,5,23,0.00
2012-1-13,26.5,19.1,13.5,15.4,12.3,9.9,91,75,60,30.19,29.95,16,2,16,0.00
2012-1-14,36.7,27.6,15.6,23.7,18.7,12.3,89,70,49,30.32,30.01,14,2,15,0.00
2012-1-15,48.2,36.1,21.9,34.2,26.1,19.2,90,69,45,30.38,30.03,25,6,27,0.00
2012-1-16,67.0,57.4,44.9,57.2,47.2,34.1,79,69,60,30.04,29.65,25,7,25,0.00
2012-1-17,66.0,38.2,23.3,58.5,32.4,15.5,96,79,69,30.38,29.58,24,5,26,0.93
2012-1-18,36.6,27.0,15.7,19.2,15.4,12.4,90,63,40,30.40,30.00,14,3,14,0.00
2012-1-19,36.2,30.0,19.6,26.3,20.4,13.0,76,67,60,30.17,29.92,13,2,13,0.00
2012-1-20,30.3,24.5,17.9,26.3,18.5,10.1,92,78,69,30.18,29.88,12,1,14,0.00
2012-1-21,34.7,27.5,22.5,27.5,23.2,18.4,92,84,71,30.26,30.03,18,3,20,0.00
2012-1-22,56.5,40.4,29.3,52.2,38.7,27.3,96,94,82,30.04,29.43,19,6,20,0.00
2012-1-23,57.0,43.3,33.4,51.2,34.4,26.8,82,71,60,30.10,29.42,22,4,23,0.00
2012-1-24,47.6,36.1,26.4,32.1,27.9,23.1,89,73,52,30.33,30.10,7,0,7,0.00
2012-1-25,35.8,34.7,33.4,34.2,31.8,28.9,95,89,80,30.32,29.98,11,1,11,0.70
2012-1-26,40.9,37.0,34.5,38.8,35.5,33.0,96,95,88,29.98,29.72,8,1,9,0.38
2012-1-27,43.1,38.7,33.3,37.0,33.4,30.7,95,82,67,30.06,29.83,10,1,10,0.13
2012-1-28,45.2,37.4,30.9,36.3,25.1,16.0,95,64,33,30.34,30.01,17,3,17,0.05
2012-1-29,49.4,40.8,34.0,27.2,22.5,20.4,70,49,34,30.29,30.19,16,2,16,0.00
2012-1-30,67.5,53.4,38.5,41.2,32.7,24.4,61,47,30,30.20,29.96,21,5,23,0.00
2012-1-31,66.3,60.0,52.4,54.1,45.1,34.2,78,58,47,30.00,29.88,17,5,18,0.00
2012-2-1,60.8,50.9,38.5,53.6,42.3,34.6,94,74,47,30.18,29.99,9,1,9,0.00
2012-2-2,65.5,49.6,32.2,41.9,35.7,30.4,95,64,32,30.33,30.18,11,1,13,0.00
2012-2-3,55.2,49.3,42.8,45.2,39.6,36.1,95,70,53,30.32,30.13,19,3,20,0.93
2012-2-4,48.4,46.5,43.3,47.0,45.2,42.0,96,95,94,30.13,29.99,14,1,14,0.22
2012-2-5,49.6,41.9,33.0,42.0,37.6,30.8,96,86,61,30.31,30.13,9,1,9,0.04
2012-2-6,48.7,36.7,30.8,36.9,32.4,29.0,97,85,59,30.32,30.20,11,1,11,0.00
2012-2-7,50.5,37.1,28.6,38.2,32.3,26.8,95,84,60,30.37,30.22,7,1,11,0.00
2012-2-8,35.8,34.3,32.8,32.8,30.3,27.0,95,85,71,30.47,30.36,4,1,7,0.06
2012-2-9,39.7,35.8,30.2,31.7,27.3,23.9,83,71,56,30.42,30.17,9,1,11,0.04
2012-2-10,41.1,34.2,23.3,38.2,29.3,15.6,91,82,71,30.32,29.99,18,3,18,0.03
2012-2-11,30.4,23.8,17.3,17.3,9.9,4.2,88,57,35,30.61,30.32,19,4,19,0.00
2012-2-12,38.9,26.5,17.2,16.8,8.6,3.9,70,49,24,30.62,30.31,12,2,12,0.00
2012-2-13,34.6,32.1,29.0,30.9,23.4,10.0,93,73,40,30.31,29.88,16,4,16,0.00
2012-2-14,41.2,36.3,32.8,34.8,33.0,30.7,95,88,76,30.04,29.86,8,1,8,0.07
2012-2-15,47.2,43.0,37.3,45.8,40.4,33.5,96,91,86,30.08,29.90,19,3,20,0.06
2012-2-16,49.3,42.6,31.6,44.9,38.7,29.4,96,86,63,30.25,29.96,11,1,11,0.15
2012-2-17,58.8,42.0,28.7,36.3,30.8,26.5,96,69,34,30.25,30.08,19,2,20,0.01
2012-2-18,47.9,41.1,35.8,34.5,30.8,27.2,78,67,52,30.22,30.11,10,1,11,0.00
2012-2-19,44.9,36.1,31.0,29.4,26.4,22.6,83,69,43,30.18,30.11,10,1,10,0.00
2012-2-20,52.9,40.8,26.0,35.4,26.5,22.5,90,60,31,30.26,29.79,26,6,26,0.03
2012-2-21,54.9,47.8,41.9,41.1,35.2,27.3,81,63,40,29.90,29.68,16,3,17,0.00
2012-2-22,64.1,50.7,37.6,36.8,31.0,26.2,66,48,31,29.80,29.46,20,2,20,0.00
2012-2-23,69.7,55.4,44.7,51.1,42.9,33.6,90,64,45,29.52,29.23,23,3,23,0.02
2012-2-24,49.9,41.2,37.3,37.2,28.0,22.1,77,60,42,30.17,29.52,26,5,26,0.00
2012-2-25,44.7,35.8,29.0,27.2,18.9,14.7,70,51,32,30.36,30.16,18,3,19,0.00
2012-2-26,65.8,49.3,32.0,32.3,25.6,18.9,62,42,24,30.26,30.02,25,6,25,0.00
2012-2-27,53.4,46.8,41.2,33.9,26.9,19.8,67,47,30,30.46,30.14,10,1,11,0.00
2012-2-28,62.1,49.8,37.3,57.8,35.3,23.9,86,58,44,30.42,29.67,22,4,22,0.00
2012-2-29,67.2,60.6,48.4,61.5,38.4,21.1,87,48,18,29.85,29.58,28,6,29,0.11
2012-3-1,68.3,53.4,36.5,37.5,33.8,29.9,81,50,29,29.92,29.57,20,3,20,0.00
2012-3-2,55.9,47.7,37.7,51.4,39.9,32.1,90,75,51,29.84,29.33,26,3,27,0.05
2012-3-3,46.1,39.6,33.0,32.5,25.9,22.1,83,59,40,29.96,29.84,20,3,20,0.00
2012-3-4,46.2,37.5,27.4,34.9,27.5,21.9,86,68,48,30.11,29.86,12,1,13,0.00
2012-3-5,51.6,40.4,28.6,30.5,25.8,22.5,85,58,32,30.45,30.12,22,4,25,0.00
2012-3-6,73.8,61.1,43.2,41.6,33.1,25.0,50,36,22,30.21,29.94,32,9,33,0.00
2012-3-7,73.0,66.4,60.5,56.7,48.9,37.6,73,54,40,30.02,29.91,32,10,32,0.01
2012-3-8,68.0,45.9,33.8,58.1,37.6,27.8,94,74,53,30.44,29.90,19,3,19,0.19
2012-3-9,57.5,44.2,31.8,28.5,24.0,14.7,81,49,23,30.57,30.44,9,1,10,0.00
2012-3-10,66.5,51.4,37.6,30.4,26.4,22.3,59,40,23,30.50,30.25,15,4,15,0.00
2012-3-11,59.7,52.0,45.2,55.8,41.1,28.8,92,68,41,30.27,29.95,19,5,23,0.04
2012-3-12,84.8,69.2,58.2,57.8,52.1,43.1,94,61,24,29.96,29.76,23,6,23,0.01
2012-3-13,85.0,67.0,48.2,58.5,50.6,44.1,89,60,25,30.08,29.95,13,2,13,0.00
2012-3-14,87.0,74.4,61.0,66.0,61.5,56.8,88,66,43,30.04,29.90,20,3,20,0.00
2012-3-15,82.5,71.0,62.8,67.2,61.0,54.8,92,71,55,30.12,29.95,16,2,16,0.54
2012-3-16,78.5,66.4,58.5,64.7,59.9,56.3,95,81,57,30.09,29.97,15,3,15,0.84
2012-3-17,81.0,65.6,59.0,67.2,61.5,57.1,96,87,58,30.05,29.89,27,2,27,1.46
2012-3-18,81.3,69.7,58.9,67.4,60.8,57.1,94,76,47,30.05,29.90,19,4,19,0.00
2012-3-19,83.5,74.5,67.3,66.1,61.7,55.6,84,66,45,29.95,29.76,27,6,27,0.00
2012-3-20,82.4,74.6,66.7,61.0,57.4,51.1,76,56,36,29.92,29.82,31,7,31,0.00
2012-3-21,81.4,74.5,68.0,59.7,57.9,55.8,69,57,43,29.98,29.87,26,5,27,0.00
2012-3-22,74.8,61.0,53.6,62.2,55.7,51.1,94,84,59,30.03,29.90,18,2,18,0.15
2012-3-23,69.0,57.8,52.7,54.9,52.3,46.8,96,83,54,29.94,29.76,12,1,15,0.27
2012-3-24,74.0,61.8,52.3,59.6,54.9,50.6,95,80,48,29.93,29.79,10,1,10,0.06
2012-3-25,76.0,64.6,54.0,60.4,57.3,52.6,96,79,54,30.05,29.93,9,1,10,0.00
2012-3-26,75.2,63.6,53.3,59.4,53.7,44.8,95,72,53,30.17,30.03,16,1,16,0.00
2012-3-27,84.5,68.8,55.0,58.4,49.6,43.6,67,52,35,30.11,29.86,16,4,16,0.00
2012-3-28,82.3,71.9,61.7,58.8,51.9,42.0,70,52,26,30.01,29.90,7,1,7,0.00
2012-3-29,73.8,65.6,57.7,55.6,51.8,44.3,88,62,41,30.01,29.80,12,1,13,0.05
2012-3-30,82.5,70.8,61.3,64.2,58.8,51.6,79,67,44,29.81,29.68,9,2,11,0.00
2012-3-31,78.3,65.2,51.6,61.3,55.6,48.4,90,72,54,29.90,29.75,9,1,9,0.00
2012-4-1,92.2,74.9,60.0,67.2,60.3,52.8,91,64,28,29.75,29.54,11,1,11,0.00
2012-4-2,92.6,78.9,63.0,67.9,64.1,60.2,94,63,36,29.75,29.57,8,1,9,0.00
2012-4-3,82.8,72.0,61.3,65.7,62.1,58.3,94,73,46,29.85,29.73,11,1,13,0.04
2012-4-4,68.0,62.9,56.4,64.9,58.6,52.8,95,86,74,29.82,29.70,7,1,7,0.31
2012-4-5,62.7,54.1,48.6,56.9,47.3,37.4,96,80,45,30.05,29.70,7,1,8,0.69
2012-4-6,64.1,51.4,39.9,43.1,38.5,34.7,86,64,37,30.24,30.05,7,0,7,0.00
2012-4-7,70.7,56.3,39.5,51.8,43.4,37.6,95,66,34,30.27,30.14,14,1,14,0.00
2012-4-8,71.8,57.1,45.2,55.9,40.1,26.8,93,59,20,30.36,30.16,7,0,8,0.00
2012-4-9,72.2,58.6,42.9,43.3,36.8,25.0,88,50,20,30.18,30.03,15,1,15,0.00
2012-4-10,61.1,53.1,42.5,40.8,30.6,24.5,79,43,28,30.22,30.07,10,2,12,0.00
2012-4-11,58.9,47.4,36.1,36.9,30.7,25.2,82,54,33,30.32,30.14,7,0,7,0.00
2012-4-12,66.5,52.1,33.8,38.6,34.5,30.8,93,57,30,30.30,30.09,18,1,18,0.00
2012-4-13,58.2,53.5,48.7,51.2,44.6,37.3,94,74,46,30.14,30.00,17,2,18,0.79
2012-4-14,80.2,64.6,52.9,68.4,59.3,50.9,96,85,60,30.05,29.75,18,2,18,1.53
2012-4-15,78.0,70.9,57.9,65.5,61.2,55.3,94,72,63,29.76,29.55,22,5,22,1.00
2012-4-16,68.7,59.2,50.0,55.4,48.0,43.6,91,68,44,30.24,29.67,17,2,18,0.01
2012-4-17,73.0,58.8,44.7,51.3,46.7,42.6,96,68,35,30.35,30.23,7,1,7,0.00
2012-4-18,76.6,63.2,46.3,52.9,47.9,44.4,95,61,33,30.23,29.98,9,1,9,0.00
2012-4-19,79.9,67.7,51.7,52.2,48.8,45.7,88,54,31,30.00,29.72,14,2,20,0.00
2012-4-20,67.5,55.0,49.0,56.4,47.5,41.3,94,77,51,30.02,29.67,10,2,14,0.10
2012-4-21,61.1,51.9,40.0,45.2,40.4,35.4,93,67,44,30.06,29.94,8,1,10,0.00
2012-4-22,58.7,51.7,46.1,48.4,43.4,33.3,95,75,50,30.13,29.88,10,1,10,0.12
2012-4-23,63.7,51.2,36.4,42.2,38.0,34.3,93,64,38,30.14,29.94,15,1,15,0.00
2012-4-24,78.0,62.1,45.6,56.9,47.9,40.0,83,62,40,29.94,29.60,8,0,10,0.00
2012-4-25,89.3,74.1,57.8,66.3,60.2,53.5,88,64,35,29.63,29.49,9,1,11,0.00
2012-4-26,79.2,72.3,61.8,66.0,58.0,46.8,86,62,43,30.01,29.57,8,1,11,0.00
2012-4-27,61.7,55.0,48.3,47.1,38.3,26.0,64,53,42,30.15,29.89,14,1,14,0.00
2012-4-28,78.6,64.7,55.4,67.9,58.2,44.8,96,80,60,30.00,29.80,21,1,21,0.80
2012-4-29,66.2,58.2,51.8,62.0,55.9,50.4,96,92,81,30.09,29.95,6,0,6,0.00
2012-4-30,73.0,67.3,62.9,65.0,63.1,60.8,94,87,72,29.96,29.91,7,0,7,0.08
2012-5-1,85.2,73.7,61.4,67.9,64.6,59.7,96,75,52,29.95,29.76,12,1,12,0.21
2012-5-2,91.0,81.5,71.6,69.3,65.7,62.1,79,60,40,29.90,29.77,14,2,14,0.00
2012-5-3,87.9,78.5,70.3,72.3,68.0,65.0,84,71,55,29.97,29.83,15,2,15,0.00
2012-5-4,84.8,75.3,67.2,73.7,68.8,63.0,94,81,66,30.01,29.80,13,0,13,0.31
2012-5-5,91.5,81.8,72.1,75.4,71.8,69.7,93,74,52,29.87,29.79,6,0,6,0.00
2012-5-6,92.3,80.5,71.8,73.5,70.8,63.5,95,75,45,29.87,29.75,21,1,21,0.35
2012-5-7,73.8,68.0,62.5,71.4,65.1,60.7,96,91,75,29.91,29.78,8,0,8,1.59
2012-5-8,74.5,65.3,55.9,61.1,51.2,44.1,95,64,36,29.99,29.90,12,1,12,0.00
2012-5-9,70.5,61.2,52.6,52.3,50.1,46.6,90,69,46,30.00,29.91,10,1,11,0.00
2012-5-10,74.2,63.6,49.6,54.9,50.2,47.2,95,65,41,30.00,29.92,6,0,6,0.00
2012-5-11,76.7,67.9,56.8,56.1,50.9,45.3,72,56,42,30.12,29.99,9,1,9,0.00
2012-5-12,79.1,68.2,57.1,57.3,53.8,49.9,90,63,38,30.19,30.09,6,0,6,0.00
2012-5-13,76.9,65.9,56.4,58.0,53.0,47.2,92,66,38,30.17,30.05,7,1,9,0.00
2012-5-14,79.4,65.6,50.2,51.0,47.5,41.6,92,57,28,30.12,30.00,6,0,7,0.00
2012-5-15,81.0,67.8,50.6,55.4,50.5,45.1,92,58,29,30.05,29.93,8,0,8,0.00
2012-5-16,78.9,69.0,58.8,58.1,52.6,44.6,84,58,34,30.03,29.93,8,1,8,0.00
2012-5-17,80.5,67.6,49.0,51.0,44.9,37.0,79,46,24,30.08,29.95,7,0,9,0.00
2012-5-18,87.8,74.8,59.4,65.2,55.4,46.4,74,53,30,30.01,29.87,8,1,8,0.00
2012-5-19,90.1,80.1,67.7,68.0,63.1,58.6,77,57,41,29.99,29.89,12,1,12,0.00
2012-5-20,89.3,76.6,67.8,69.7,65.4,62.3,94,70,47,30.06,29.94,23,1,24,0.24
2012-5-21,73.2,66.1,58.1,66.7,54.1,48.6,93,67,45,30.14,30.05,9,1,9,0.00
2012-5-22,77.5,65.1,51.5,56.1,52.2,48.0,94,67,38,30.08,29.87,6,0,6,0.00
2012-5-23,84.2,72.5,55.1,58.0,53.5,49.6,85,54,35,29.89,29.68,12,1,12,0.00
2012-5-24,90.8,79.4,65.5,64.4,58.4,51.7,66,50,32,29.73,29.55,22,4,22,0.00
2012-5-25,91.1,82.7,72.5,73.4,69.2,63.8,81,64,54,29.95,29.73,14,1,14,0.00
2012-5-26,94.2,84.8,74.4,75.9,70.1,65.6,78,63,47,30.01,29.89,9,1,9,0.00
2012-5-27,92.7,84.1,73.9,69.8,66.1,63.7,73,56,40,29.98,29.81,8,1,11,0.00
2012-5-28,93.7,85.0,76.6,70.2,66.0,61.4,71,54,35,29.86,29.72,14,1,14,0.00
2012-5-29,88.3,79.4,70.4,70.4,61.0,55.0,80,55,34,29.89,29.73,7,1,8,0.00
2012-5-30,82.5,72.8,63.8,60.6,55.8,50.6,83,57,36,29.97,29.80,5,0,6,0.01
2012-5-31,69.7,62.7,54.2,63.9,54.5,48.9,93,76,54,29.87,29.72,9,1,9,0.10
2012-6-1,69.1,59.1,49.5,51.6,47.4,43.1,92,67,41,29.96,29.86,11,2,13,0.00
2012-6-2,79.0,66.0,53.4,57.6,53.1,48.1,84,65,45,29.94,29.77,11,1,11,0.00
2012-6-3,86.9,72.3,56.3,64.8,59.5,53.7,93,67,38,29.90,29.77,6,0,7,0.00
2012-6-4,91.5,75.4,64.0,74.2,65.9,61.1,92,74,46,29.84,29.69,9,1,9,0.09
2012-6-5,82.5,72.4,58.8,62.7,56.8,52.4,93,61,36,29.93,29.84,8,1,9,0.00
2012-6-6,81.0,70.6,60.0,55.5,52.3,48.4,77,54,36,30.04,29.92,7,1,7,0.00
2012-6-7,85.0,70.9,55.1,57.9,53.9,48.9,91,59,33,30.11,30.01,5,0,5,0.00
2012-6-8,87.5,74.8,57.4,60.1,54.6,49.8,92,54,29,30.08,29.91,9,0,9,0.00
2012-6-9,91.2,79.2,62.7,65.5,60.1,52.6,77,53,39,29.94,29.78,8,1,11,0.00
2012-6-10,88.5,79.6,70.8,69.7,65.4,59.3,76,62,51,29.88,29.79,15,2,16,0.00
2012-6-11,79.6,74.1,70.5,72.8,69.1,67.4,93,85,72,29.93,29.77,12,1,12,0.35
2012-6-12,81.2,72.4,62.6,67.3,56.8,47.3,95,63,32,30.10,29.93,8,1,8,0.00
2012-6-13,84.0,70.3,54.2,58.4,54.3,50.6,92,60,33,30.13,29.99,6,0,7,0.00
2012-6-14,88.3,76.2,57.9,62.2,57.5,54.4,91,56,35,30.04,29.89,11,1,11,0.00
2012-6-15,92.3,80.9,66.5,66.4,61.9,53.8,80,55,28,30.01,29.91,13,2,13,0.00
2012-6-16,94.7,84.5,71.1,76.4,68.0,61.3,94,59,41,30.04,29.84,15,1,16,0.51
2012-6-17,91.0,79.5,69.6,73.4,70.1,66.8,94,75,52,29.99,29.78,7,1,7,0.10
2012-6-18,94.3,85.1,75.8,71.8,68.1,64.5,75,59,40,29.84,29.74,15,2,15,0.00
2012-6-19,92.3,85.1,77.6,72.1,68.6,62.5,74,59,43,29.94,29.84,13,3,14,0.00
2012-6-20,94.9,85.5,74.9,70.7,64.2,60.1,64,50,35,30.01,29.88,13,2,13,0.00
2012-6-21,85.5,79.9,70.0,70.3,66.1,60.9,78,63,52,29.98,29.89,12,1,12,0.00
2012-6-22,87.1,75.6,63.8,65.0,61.3,56.8,94,64,38,30.01,29.93,6,1,6,0.00
2012-6-23,90.9,77.7,62.5,63.6,59.7,53.7,89,57,38,30.01,29.87,7,0,7,0.00
2012-6-24,98.3,86.2,70.9,67.3,62.7,55.0,69,47,33,29.96,29.82,7,1,7,0.00
2012-6-25,91.2,83.3,71.9,72.0,64.4,48.2,75,54,34,29.92,29.82,8,1,9,0.00
2012-6-26,88.5,75.4,60.4,58.7,54.5,50.5,78,51,29,29.98,29.86,9,1,9,0.00
2012-6-27,99.9,83.4,66.9,62.7,56.1,52.1,69,42,23,29.97,29.81,13,2,13,0.00
2012-6-28,108.0,91.1,74.4,67.5,58.4,49.4,57,36,15,29.91,29.81,11,1,12,0.00
2012-6-29,105.2,89.4,71.8,72.7,65.9,60.3,76,48,26,29.90,29.72,10,1,10,0.00
2012-6-30,103.5,89.1,76.3,73.5,68.1,61.6,83,53,27,29.84,29.74,11,1,11,0.00
2012-7-1,101.3,88.1,75.1,75.0,69.6,66.7,81,56,36,29.94,29.80,15,1,15,0.00
2012-7-2,101.5,83.5,75.0,74.4,70.1,64.7,84,66,37,29.95,29.87,14,1,14,0.04
2012-7-3,99.8,86.5,72.4,75.3,70.8,65.6,89,63,35,29.95,29.79,11,1,11,0.00
2012-7-4,102.5,91.7,81.3,73.8,67.6,59.6,70,48,25,29.93,29.82,11,1,11,0.00
2012-7-5,104.3,92.1,77.2,73.4,68.8,62.7,75,49,28,29.94,29.85,6,1,7,0.00
2012-7-6,106.0,93.5,80.1,75.7,71.0,66.1,77,51,30,29.94,29.85,7,0,7,0.00
2012-7-7,106.0,89.9,77.4,76.9,71.9,64.5,88,60,29,29.97,29.83,15,1,15,0.19
2012-7-8,95.5,82.8,72.8,78.3,74.1,69.5,95,76,54,29.99,29.84,24,1,24,0.59
2012-7-9,90.8,81.7,73.5,72.9,68.3,61.5,95,67,43,30.00,29.90,7,1,8,0.01
2012-7-10,95.0,83.4,69.4,67.1,64.1,59.6,86,55,34,29.99,29.90,8,1,8,0.00
2012-7-11,92.6,82.5,71.8,69.2,63.8,58.4,68,54,40,30.03,29.94,8,1,9,0.00
2012-7-12,95.5,84.4,70.4,70.6,66.5,62.3,87,57,36,30.00,29.92,13,1,13,0.00
2012-7-13,95.0,82.3,71.7,72.5,69.2,66.6,87,66,41,30.01,29.92,13,1,14,0.00
2012-7-14,93.0,81.7,72.2,74.2,70.7,63.9,87,70,50,30.04,29.93,11,1,12,0.00
2012-7-15,95.0,84.9,71.9,73.7,70.4,66.4,90,64,40,30.08,29.93,10,1,10,0.00
2012-7-16,97.0,88.0,78.1,74.3,72.5,71.1,83,62,45,30.00,29.82,12,2,13,0.00
2012-7-17,100.6,89.7,80.6,75.2,72.4,68.0,75,58,36,29.90,29.78,12,2,12,0.00
2012-7-18,103.1,92.0,81.4,74.8,71.5,66.7,74,54,32,29.91,29.77,12,1,12,0.00
2012-7-19,101.5,90.8,83.2,74.4,71.3,66.7,71,54,36,29.92,29.77,13,2,14,0.00
2012-7-20,85.7,80.3,74.5,73.1,70.0,68.2,85,71,60,30.00,29.86,8,1,9,0.00
2012-7-21,94.3,81.3,67.6,69.3,65.7,60.9,93,63,35,30.08,29.97,9,1,9,0.00
2012-7-22,99.7,88.1,76.0,69.4,64.0,58.9,69,46,29,30.07,29.95,12,2,12,0.00
2012-7-23,104.8,92.5,80.4,76.1,70.5,65.6,74,51,30,30.04,29.89,10,1,10,0.00
2012-7-24,104.4,94.2,84.3,73.9,70.4,66.7,61,47,31,29.95,29.78,11,1,11,0.00
2012-7-25,104.8,94.6,84.6,73.7,69.2,63.8,63,45,27,29.84,29.64,16,2,21,0.00
2012-7-26,93.0,87.9,80.7,74.2,71.4,68.3,74,59,46,29.82,29.65,11,2,13,0.00
2012-7-27,97.0,85.8,75.0,72.2,67.1,58.1,88,57,29,29.96,29.81,13,2,13,0.00
2012-7-28,91.6,80.8,68.2,66.0,63.5,59.2,86,58,35,30.09,29.96,6,1,9,0.00
2012-7-29,86.5,77.0,70.6,73.1,69.1,63.8,94,77,63,30.09,29.88,14,2,14,0.40
2012-7-30,85.4,79.6,74.0,74.2,71.6,69.0,91,77,65,29.89,29.83,12,1,12,0.00
2012-7-31,100.7,85.0,70.7,74.3,70.5,64.4,95,66,33,29.94,29.80,7,0,7,0.00
2012-8-1,98.6,87.5,75.6,74.7,68.2,56.8,82,55,33,29.89,29.77,9,1,9,0.00
2012-8-2,95.7,83.7,76.3,79.4,70.1,57.9,85,64,42,29.81,29.67,11,1,11,0.02
2012-8-3,98.1,86.5,75.0,78.0,74.9,71.0,88,70,49,29.78,29.73,12,2,13,0.00
2012-8-4,96.1,84.8,75.4,78.6,74.7,69.5,93,73,47,29.93,29.76,19,2,20,0.59
2012-8-5,89.8,80.2,73.2,73.0,66.4,59.6,93,66,38,30.11,29.89,9,1,9,0.24
2012-8-6,92.7,79.8,65.8,66.5,63.0,57.1,88,60,33,30.12,29.96,8,0,9,0.00
2012-8-7,98.6,83.1,65.9,68.5,63.0,58.8,91,55,29,29.98,29.88,9,1,9,0.00
2012-8-8,97.2,83.7,68.5,70.4,65.0,61.6,93,55,35,29.99,29.83,16,1,16,1.01
2012-8-9,91.0,79.3,69.2,71.7,68.0,65.1,95,72,45,29.93,29.73,8,1,9,0.17
2012-8-10,78.3,72.7,67.2,66.1,61.5,57.8,85,69,51,29.96,29.81,11,2,11,0.00
2012-8-11,85.3,71.9,59.2,60.9,57.0,51.8,94,63,33,30.03,29.92,7,0,9,0.00
2012-8-12,84.3,73.1,61.5,66.6,59.6,56.6,86,64,43,30.00,29.84,15,2,17,0.00
2012-8-13,79.8,72.6,65.6,67.1,64.0,57.7,90,75,52,29.95,29.81,13,2,13,0.13
2012-8-14,79.0,72.0,62.6,65.1,63.0,60.2,94,74,57,30.00,29.91,6,0,7,0.00
2012-8-15,91.1,76.9,60.5,65.0,62.0,58.5,94,64,37,29.99,29.83,13,2,13,0.00
2012-8-16,95.8,80.0,71.0,75.1,69.3,62.8,92,71,49,29.94,29.72,16,1,16,0.23
2012-8-17,80.0,70.9,61.0,63.6,55.9,49.4,88,61,35,30.04,29.94,9,1,10,0.00
2012-8-18,81.9,70.1,55.6,58.6,53.8,47.8,93,61,33,30.00,29.87,8,0,8,0.00
2012-8-19,83.5,72.5,62.5,61.3,55.3,43.6,85,57,31,29.94,29.88,9,1,9,0.00
2012-8-20,83.6,69.8,56.6,59.4,55.3,51.0,91,64,33,29.99,29.91,12,1,12,0.00
2012-8-21,87.6,74.0,59.2,61.2,57.5,53.8,91,60,33,30.02,29.95,8,0,8,0.00
2012-8-22,95.0,80.6,62.5,62.6,57.5,53.8,84,49,27,30.04,29.95,9,1,9,0.00
2012-8-23,98.2,82.8,65.9,63.4,58.6,53.1,78,47,25,30.05,29.93,11,1,13,0.00
2012-8-24,94.0,83.5,72.4,63.9,60.1,55.8,65,47,29,30.02,29.91,14,2,14,0.00
2012-8-25,89.7,79.3,72.6,72.3,66.6,62.1,89,67,48,29.99,29.91,19,3,19,0.01
2012-8-26,90.1,78.0,73.2,74.7,71.2,67.8,94,81,55,29.99,29.90,14,2,15,1.14
2012-8-27,89.2,78.6,70.4,73.8,70.2,63.6,95,78,46,30.07,29.94,9,1,9,0.05
2012-8-28,91.8,77.8,63.4,70.5,65.1,61.3,95,68,41,30.10,29.94,9,1,9,0.00
2012-8-29,92.8,79.1,65.6,67.6,64.3,61.1,91,63,37,30.03,29.90,13,1,13,0.00
2012-8-30,96.4,83.7,67.6,71.3,64.0,57.6,86,54,30,29.99,29.88,12,2,12,0.00
2012-8-31,84.8,78.3,74.9,76.9,73.3,70.7,94,85,64,29.99,29.83,12,2,12,1.17
2012-9-1,81.2,76.9,74.2,75.2,73.5,72.0,94,89,79,29.83,29.71,16,2,16,0.61
2012-9-2,82.5,76.5,74.2,75.5,73.6,72.6,95,91,76,29.81,29.73,11,1,11,0.31
2012-9-3,87.3,78.9,74.2,75.7,73.1,71.7,93,83,62,29.88,29.80,7,1,8,0.00
2012-9-4,92.3,79.9,72.7,74.5,71.6,66.9,93,78,46,29.90,29.79,8,0,9,0.00
2012-9-5,86.3,76.7,69.5,75.8,71.5,66.5,92,84,68,29.88,29.76,13,1,13,0.14
2012-9-6,90.6,77.2,66.8,75.8,70.0,63.3,94,80,56,29.92,29.84,16,1,19,0.00
2012-9-7,93.8,75.4,66.2,75.5,67.3,61.9,93,78,52,29.87,29.60,14,1,14,0.58
2012-9-8,74.2,66.2,59.0,62.0,55.0,49.0,91,69,46,30.01,29.88,14,2,14,0.00
2012-9-9,75.8,65.7,56.5,58.3,54.3,50.9,89,68,45,30.13,29.92,11,1,11,0.00
2012-9-10,81.6,67.5,53.0,58.6,55.3,51.0,95,68,42,30.21,30.07,12,1,12,0.00
2012-9-11,86.6,72.7,56.7,62.9,58.7,54.3,94,64,39,30.15,30.04,14,2,14,0.00
2012-9-12,86.8,75.4,63.9,64.1,60.4,58.1,82,61,40,30.16,30.05,15,2,15,0.00
2012-9-13,88.0,72.1,61.5,68.9,61.0,55.3,84,70,41,30.27,30.11,10,1,11,0.00
2012-9-14,69.1,61.8,57.5,60.7,57.3,53.7,94,85,66,30.33,30.25,6,1,8,0.35
2012-9-15,69.2,62.4,53.9,58.4,54.6,51.4,95,77,57,30.29,30.12,12,0,12,0.00
2012-9-16,74.0,67.6,61.6,66.1,61.7,57.3,93,82,73,30.12,29.96,9,0,9,0.00
2012-9-17,76.0,69.3,62.0,69.6,66.0,59.1,94,89,77,29.97,29.75,11,0,11,0.53
2012-9-18,68.7,58.6,49.9,58.7,48.6,42.0,93,72,39,30.08,29.84,14,1,14,0.04
2012-9-19,77.1,62.6,47.1,53.4,48.8,44.9,93,65,38,30.13,29.93,16,2,19,0.00
2012-9-20,78.5,67.6,55.0,57.6,49.8,38.3,82,56,25,29.98,29.92,11,1,11,0.00
2012-9-21,83.7,69.1,54.2,66.2,54.1,45.7,86,61,37,29.99,29.67,13,2,14,0.00
2012-9-22,68.7,59.8,47.3,53.4,44.5,31.5,91,62,28,30.22,29.88,12,1,14,0.00
2012-9-23,68.0,53.8,41.6,47.7,42.4,36.8,94,69,36,30.33,30.22,8,0,8,0.00
2012-9-24,74.1,59.4,42.5,51.1,45.0,40.1,94,63,33,30.25,29.92,15,2,16,0.00
2012-9-25,84.8,69.6,62.1,71.4,61.7,50.6,93,77,61,29.94,29.76,19,2,19,0.84
2012-9-26,78.0,69.7,65.3,68.5,65.4,63.4,95,87,67,30.06,29.89,10,1,10,0.83
2012-9-27,70.9,66.9,63.9,65.4,63.6,62.1,95,89,80,30.14,30.05,7,0,7,0.00
2012-9-28,72.0,62.7,53.6,63.0,54.4,49.5,91,76,47,30.18,30.07,7,0,7,0.04
2012-9-29,75.8,61.1,48.9,58.8,52.7,47.2,95,77,42,30.14,29.98,6,0,6,0.00
2012-9-30,74.3,62.0,52.4,59.0,54.0,50.1,94,77,48,29.98,29.83,5,0,5,0.00
2012-10-1,66.0,59.8,55.3,53.5,50.8,48.6,86,73,55,29.84,29.74,9,1,9,0.00
2012-10-2,71.2,60.0,47.6,57.3,51.5,45.2,93,75,50,29.88,29.77,8,1,8,0.00
2012-10-3,77.7,66.5,59.9,60.7,56.6,50.6,84,72,40,30.03,29.87,7,1,7,0.00
2012-10-4,82.2,68.1,55.8,63.1,56.9,47.9,89,69,47,30.17,30.03,12,1,12,0.00
2012-10-5,56.1,48.2,40.6,49.0,44.2,37.4,93,86,73,30.23,30.14,8,1,9,0.51
2012-10-6,50.7,44.5,38.7,38.2,35.9,32.3,91,73,54,30.27,30.21,10,1,10,0.00
2012-10-7,56.0,45.5,37.2,37.5,34.9,29.8,91,69,39,30.30,30.18,11,1,11,0.00
2012-10-8,64.2,48.8,35.0,41.3,36.9,32.9,94,67,35,30.23,30.06,13,1,13,0.00
2012-10-9,70.2,57.1,45.5,49.2,44.4,39.8,84,64,42,30.07,29.90,15,2,15,0.00
2012-10-10,59.7,48.7,40.3,46.9,37.8,30.4,92,70,37,30.29,30.03,15,1,15,0.02
2012-10-11,66.6,53.5,38.9,52.0,41.4,34.8,90,66,43,30.25,30.11,12,2,12,0.00
2012-10-12,66.8,58.0,50.3,53.3,49.6,42.1,93,74,56,30.36,30.18,8,1,9,0.00
2012-10-13,77.6,67.2,55.3,65.6,60.4,50.9,92,79,65,30.21,29.76,15,3,17,0.00
2012-10-14,73.3,65.6,54.9,66.1,58.9,49.3,94,80,58,29.93,29.63,19,3,19,0.75
2012-10-15,71.8,57.5,47.2,53.2,47.8,44.6,92,73,40,30.01,29.92,8,0,8,0.00
2012-10-16,85.3,68.0,53.7,56.5,50.0,46.6,81,56,29,29.93,29.59,14,3,14,0.00
2012-10-17,67.8,62.9,54.4,61.8,55.4,49.6,94,77,53,29.62,29.34,21,3,21,0.32
2012-10-18,62.2,55.4,48.5,51.2,39.5,31.9,89,58,35,29.62,29.56,18,2,18,0.00
2012-10-19,54.6,51.4,47.5,46.1,44.4,41.3,91,77,64,29.79,29.54,16,3,17,0.01
2012-10-20,67.4,56.1,50.2,49.5,46.7,44.7,82,72,50,29.91,29.79,11,1,11,0.00
2012-10-21,81.5,66.0,51.6,63.7,55.3,46.6,84,70,49,29.93,29.84,17,3,17,0.00
2012-10-22,76.3,71.0,65.6,67.9,63.7,58.9,86,78,68,29.92,29.86,13,3,15,0.08
2012-10-23,81.2,71.6,64.9,68.3,63.0,59.0,93,75,55,29.94,29.81,15,3,16,0.40
2012-10-24,85.0,75.1,66.9,68.1,63.6,60.5,81,68,54,29.94,29.82,18,4,18,0.00
2012-10-25,83.5,66.5,46.3,65.7,57.3,39.8,92,74,54,30.15,29.73,24,4,24,0.69
2012-10-26,52.9,45.5,41.1,40.2,34.2,31.5,78,65,48,30.35,30.14,14,2,15,0.00
2012-10-27,52.2,43.2,34.9,36.9,32.6,30.1,84,67,50,30.35,30.23,9,1,9,0.00
2012-10-28,52.7,43.1,33.5,36.6,33.5,30.1,91,70,49,30.29,30.23,11,1,11,0.00
2012-10-29,56.8,42.0,30.8,38.0,32.4,24.9,94,72,30,30.35,30.14,8,0,8,0.00
2012-10-30,58.7,46.1,35.9,37.0,31.5,28.6,82,59,35,30.14,29.89,18,1,18,0.00
2012-10-31,57.5,46.0,36.6,33.6,28.6,20.6,80,54,25,30.00,29.92,13,1,13,0.00
2012-11-1,62.9,47.7,33.9,45.0,36.0,28.4,86,66,41,30.03,29.87,8,0,8,0.00
2012-11-2,59.5,49.2,38.5,41.2,36.6,33.3,88,63,42,30.09,29.90,9,0,9,0.00
2012-11-3,52.0,47.5,40.0,41.5,38.5,35.9,89,71,61,30.21,29.99,10,1,12,0.00
2012-11-4,52.6,42.2,31.5,38.3,35.2,29.6,95,78,54,30.28,30.17,6,0,6,0.00
2012-11-5,45.5,43.9,42.6,42.1,39.9,37.0,92,86,72,30.17,30.07,14,2,14,0.01
2012-11-6,47.6,45.0,41.3,43.9,41.5,38.8,92,88,82,30.10,29.93,9,1,9,0.03
2012-11-7,49.7,45.9,34.9,43.1,39.2,32.5,91,77,67,30.20,29.94,10,1,10,0.00
2012-11-8,60.4,46.1,30.4,42.6,37.2,28.6,95,73,51,30.25,30.06,15,2,15,0.00
2012-11-9,73.6,61.6,46.5,56.7,49.4,39.8,78,65,53,30.07,29.89,21,4,21,0.00
2012-11-10,81.8,69.2,60.1,55.2,50.8,46.0,68,54,29,29.97,29.86,26,7,26,0.00
2012-11-11,69.5,59.4,38.5,60.0,52.2,36.3,94,78,61,30.10,29.75,35,6,35,1.12
2012-11-12,47.7,38.0,31.0,36.3,25.8,22.0,92,63,38,30.46,30.09,18,3,18,0.00
2012-11-13,52.7,39.1,26.7,31.2,26.3,21.8,93,63,32,30.56,30.45,11,0,11,0.00
2012-11-14,53.4,41.4,33.9,32.0,28.7,24.0,81,63,33,30.51,30.36,11,1,11,0.00
2012-11-15,57.4,41.1,29.2,36.7,31.1,26.5,91,70,32,30.41,30.33,6,0,6,0.00
2012-11-16,62.1,45.4,31.2,39.0,34.0,28.8,92,68,37,30.46,30.40,7,0,7,0.00
2012-11-17,60.3,46.0,31.6,38.3,33.8,27.5,92,66,30,30.52,30.39,11,1,11,0.00
2012-11-18,64.5,49.1,31.9,40.0,34.4,29.6,93,61,29,30.41,30.28,11,2,11,0.00
2012-11-19,59.7,52.5,44.6,46.4,40.8,35.8,87,65,54,30.29,30.12,11,2,11,0.03
2012-11-20,62.3,49.8,40.9,49.5,44.6,39.0,95,83,61,30.21,30.08,7,0,7,0.00
2012-11-21,67.0,50.8,40.4,52.9,45.9,39.4,96,85,54,30.29,30.13,8,1,9,0.00
2012-11-22,69.8,59.4,49.5,54.0,48.1,43.1,87,69,43,30.13,29.91,20,4,20,0.05
2012-11-23,55.1,41.8,30.9,42.9,28.8,20.0,76,60,43,30.37,30.09,22,3,22,0.00
2012-11-24,43.1,32.8,25.3,24.4,21.2,18.3,77,63,44,30.38,30.04,13,2,13,0.00
2012-11-25,57.9,44.9,36.9,36.4,29.4,23.3,80,56,37,30.07,29.92,12,2,12,0.00
2012-11-26,44.9,38.1,31.7,31.4,29.1,21.5,86,70,55,30.42,30.06,11,2,11,0.00
2012-11-27,43.1,31.6,23.4,26.1,22.2,18.4,83,69,46,30.49,30.33,6,0,7,0.00
2012-11-28,53.2,38.2,23.9,31.8,27.0,20.9,89,66,42,30.48,30.31,9,1,9,0.00
2012-11-29,63.8,49.3,36.8,38.0,33.4,28.9,81,57,33,30.31,30.08,15,4,16,0.00
2012-11-30,69.4,56.2,47.4,47.7,41.2,34.1,71,58,45,30.12,30.04,11,2,12,0.00
2012-12-1,71.8,61.5,51.7,57.9,52.9,43.9,91,74,60,30.10,29.92,22,5,22,0.00
2012-12-2,75.0,67.2,62.8,61.2,58.9,55.4,87,75,60,30.01,29.92,20,3,20,0.00
2012-12-3,75.3,68.5,63.9,62.2,59.8,57.8,88,75,57,29.99,29.83,27,8,28,0.00
2012-12-4,66.4,51.8,38.2,58.9,45.9,36.3,93,81,57,30.30,29.89,13,1,15,0.32
2012-12-5,58.0,45.5,33.7,41.6,37.2,32.2,95,75,49,30.39,30.15,9,1,11,0.00
2012-12-6,56.1,47.8,40.4,44.4,39.8,35.3,83,74,58,30.15,29.92,11,2,12,0.00
2012-12-7,56.5,51.7,47.5,51.6,48.1,43.2,94,88,80,29.93,29.81,7,1,7,0.11
2012-12-8,49.4,46.2,44.4,47.7,43.3,40.8,95,90,82,30.00,29.86,8,1,9,0.25
2012-12-9,50.7,46.2,37.3,48.9,43.7,32.4,95,91,78,29.95,29.78,18,2,18,0.26
2012-12-10,37.1,30.1,27.3,32.4,23.3,21.1,83,76,68,30.10,29.91,17,3,21,0.00
2012-12-11,44.6,31.3,22.5,26.3,22.4,19.5,89,71,42,30.25,30.10,13,1,13,0.00
2012-12-12,53.3,38.2,23.8,28.9,24.7,20.5,90,62,30,30.35,30.25,14,2,14,0.00
2012-12-13,58.6,44.4,33.1,28.3,26.2,21.0,74,52,24,30.33,30.17,21,4,21,0.00
2012-12-14,59.9,45.4,30.6,39.7,31.1,26.1,86,60,33,30.23,29.96,14,3,15,0.02
2012-12-15,62.2,50.8,44.9,50.7,46.1,39.4,93,84,62,29.96,29.60,24,5,26,0.16
2012-12-16,55.9,47.0,41.3,46.5,42.5,38.7,92,84,70,29.76,29.65,6,0,6,0.00
2012-12-17,42.4,40.7,38.4,39.4,37.9,34.1,94,90,82,29.82,29.69,8,1,8,0.04
2012-12-18,62.2,46.8,35.0,39.3,36.1,32.2,92,69,41,29.93,29.67,20,3,20,0.00
2012-12-19,51.6,41.7,32.0,48.2,36.8,29.1,92,83,74,30.01,29.51,18,2,18,0.01
2012-12-20,56.5,40.8,28.6,52.9,35.6,20.7,95,82,67,30.00,29.24,34,7,34,0.26
2012-12-21,37.7,30.7,26.3,20.7,18.1,15.9,72,60,42,30.33,30.00,21,4,21,0.00
2012-12-22,50.7,35.8,20.5,27.8,22.0,17.2,89,60,36,30.33,29.97,18,3,18,0.00
2012-12-23,51.2,41.3,31.3,35.6,30.5,25.6,86,67,49,29.98,29.87,6,0,6,0.00
2012-12-24,35.7,29.8,24.6,32.2,25.9,17.8,91,85,75,30.18,29.84,13,2,15,0.00
2012-12-25,34.5,29.4,24.5,28.0,24.2,17.8,87,81,73,30.30,30.02,14,2,14,0.00
2012-12-26,33.0,30.5,29.1,26.5,24.7,22.7,84,79,74,30.21,29.96,17,3,20,0.00
2012-12-27,36.4,31.3,28.3,26.3,24.6,22.8,84,76,64,30.23,30.09,16,2,16,0.00
2012-12-28,37.1,33.7,31.1,32.2,29.6,25.9,94,85,78,30.09,29.91,12,1,13,0.00
2012-12-29,33.7,29.7,21.3,31.0,23.8,17.3,90,79,63,30.37,29.94,16,2,17,0.00
2012-12-30,43.8,32.5,20.4,29.5,23.6,17.1,88,71,48,30.46,30.23,14,3,16,0.00
2012-12-31,39.0,36.0,32.9,33.8,30.2,24.3,95,81,59,30.25,30.10,14,1,17,0.08
2013-1-1,32.8,24.6,18.8,30.8,19.5,14.4,93,81,72,30.31,30.13,9,1,9,0.00